sensor_id;sensor_type;location;lat;lon;timestamp;temperature;humidity
851;DHT22;412;51.400;7.480;2023-06-19T00:01:56;24.10;85.30
851;DHT22;412;51.400;7.480;2023-06-19T00:04:22;24.10;86.00
851;DHT22;412;51.400;7.480;2023-06-19T00:06:47;24.10;86.70
851;DHT22;412;51.400;7.480;2023-06-19T00:09:14;24.10;87.20
851;DHT22;412;51.400;7.480;2023-06-19T00:11:40;24.10;87.60
851;DHT22;412;51.400;7.480;2023-06-19T00:14:06;24.10;87.90
851;DHT22;412;51.400;7.480;2023-06-19T00:16:34;24.00;88.30
851;DHT22;412;51.400;7.480;2023-06-19T00:19:00;24.10;88.20
851;DHT22;412;51.400;7.480;2023-06-19T00:21:29;24.10;88.50
851;DHT22;412;51.400;7.480;2023-06-19T00:23:55;24.00;88.60
851;DHT22;412;51.400;7.480;2023-06-19T00:26:21;24.00;89.00
851;DHT22;412;51.400;7.480;2023-06-19T00:28:51;24.00;89.20
851;DHT22;412;51.400;7.480;2023-06-19T00:31:17;24.10;89.20
851;DHT22;412;51.400;7.480;2023-06-19T00:33:44;24.10;89.10
851;DHT22;412;51.400;7.480;2023-06-19T00:36:11;24.10;89.20
851;DHT22;412;51.400;7.480;2023-06-19T00:38:38;24.10;89.70
851;DHT22;412;51.400;7.480;2023-06-19T00:41:05;24.10;90.20
851;DHT22;412;51.400;7.480;2023-06-19T00:43:32;24.20;90.70
851;DHT22;412;51.400;7.480;2023-06-19T00:45:58;24.20;91.20
851;DHT22;412;51.400;7.480;2023-06-19T00:48:26;24.20;91.50
851;DHT22;412;51.400;7.480;2023-06-19T00:50:52;24.20;91.90
851;DHT22;412;51.400;7.480;2023-06-19T00:53:19;24.10;91.60
851;DHT22;412;51.400;7.480;2023-06-19T00:55:47;24.10;92.20
851;DHT22;412;51.400;7.480;2023-06-19T00:58:13;24.10;92.50
851;DHT22;412;51.400;7.480;2023-06-19T01:00:39;24.00;92.90
851;DHT22;412;51.400;7.480;2023-06-19T01:03:04;24.00;92.90
851;DHT22;412;51.400;7.480;2023-06-19T01:05:30;23.90;93.20
851;DHT22;412;51.400;7.480;2023-06-19T01:08:14;23.90;93.50
851;DHT22;412;51.400;7.480;2023-06-19T01:10:53;23.90;93.50
851;DHT22;412;51.400;7.480;2023-06-19T01:15:50;23.80;93.60
851;DHT22;412;51.400;7.480;2023-06-19T01:18:16;23.80;93.80
851;DHT22;412;51.400;7.480;2023-06-19T01:20:43;23.70;93.90
851;DHT22;412;51.400;7.480;2023-06-19T01:23:10;23.70;93.90
851;DHT22;412;51.400;7.480;2023-06-19T01:25:37;23.70;94.10
851;DHT22;412;51.400;7.480;2023-06-19T01:28:05;23.70;93.70
851;DHT22;412;51.400;7.480;2023-06-19T01:30:35;23.70;94.50
851;DHT22;412;51.400;7.480;2023-06-19T01:35:36;23.70;95.30
851;DHT22;412;51.400;7.480;2023-06-19T01:38:04;23.70;95.00
851;DHT22;412;51.400;7.480;2023-06-19T01:40:32;23.70;95.50
851;DHT22;412;51.400;7.480;2023-06-19T01:42:59;23.60;92.50
851;DHT22;412;51.400;7.480;2023-06-19T01:45:28;23.50;91.50
851;DHT22;412;51.400;7.480;2023-06-19T01:47:54;23.50;91.50
851;DHT22;412;51.400;7.480;2023-06-19T01:50:23;23.40;91.30
851;DHT22;412;51.400;7.480;2023-06-19T01:52:50;23.30;91.40
851;DHT22;412;51.400;7.480;2023-06-19T01:55:16;23.30;91.30
851;DHT22;412;51.400;7.480;2023-06-19T01:57:42;23.40;91.40
851;DHT22;412;51.400;7.480;2023-06-19T02:00:08;23.50;91.00
851;DHT22;412;51.400;7.480;2023-06-19T02:02:36;23.50;90.80
851;DHT22;412;51.400;7.480;2023-06-19T02:05:02;23.60;90.50
851;DHT22;412;51.400;7.480;2023-06-19T02:07:28;23.50;90.70
851;DHT22;412;51.400;7.480;2023-06-19T02:09:53;23.60;90.60
851;DHT22;412;51.400;7.480;2023-06-19T02:12:19;23.70;91.20
851;DHT22;412;51.400;7.480;2023-06-19T02:14:45;23.80;91.40
851;DHT22;412;51.400;7.480;2023-06-19T02:17:11;23.80;91.10
851;DHT22;412;51.400;7.480;2023-06-19T02:19:36;23.70;90.50
851;DHT22;412;51.400;7.480;2023-06-19T02:22:02;23.70;91.00
851;DHT22;412;51.400;7.480;2023-06-19T02:24:28;23.80;91.20
851;DHT22;412;51.400;7.480;2023-06-19T02:26:54;23.80;90.90
851;DHT22;412;51.400;7.480;2023-06-19T02:29:20;23.80;90.60
851;DHT22;412;51.400;7.480;2023-06-19T02:31:46;23.90;90.90
851;DHT22;412;51.400;7.480;2023-06-19T02:34:11;23.90;91.00
851;DHT22;412;51.400;7.480;2023-06-19T02:36:37;23.90;90.70
851;DHT22;412;51.400;7.480;2023-06-19T02:39:06;23.90;91.20
851;DHT22;412;51.400;7.480;2023-06-19T02:41:32;23.90;91.40
851;DHT22;412;51.400;7.480;2023-06-19T02:43:58;23.90;91.50
851;DHT22;412;51.400;7.480;2023-06-19T02:46:24;23.90;90.60
851;DHT22;412;51.400;7.480;2023-06-19T02:48:49;23.90;90.30
851;DHT22;412;51.400;7.480;2023-06-19T02:51:15;23.80;90.40
851;DHT22;412;51.400;7.480;2023-06-19T02:53:41;23.80;88.60
851;DHT22;412;51.400;7.480;2023-06-19T02:56:07;23.90;85.80
851;DHT22;412;51.400;7.480;2023-06-19T02:58:33;23.90;85.20
851;DHT22;412;51.400;7.480;2023-06-19T03:01:00;23.90;84.20
851;DHT22;412;51.400;7.480;2023-06-19T03:03:26;23.90;83.80
851;DHT22;412;51.400;7.480;2023-06-19T03:05:51;23.90;84.00
851;DHT22;412;51.400;7.480;2023-06-19T03:08:17;23.90;83.90
851;DHT22;412;51.400;7.480;2023-06-19T03:10:43;24.00;83.90
851;DHT22;412;51.400;7.480;2023-06-19T03:13:09;24.00;83.70
851;DHT22;412;51.400;7.480;2023-06-19T03:15:34;24.00;83.60
851;DHT22;412;51.400;7.480;2023-06-19T03:18:00;24.00;83.60
851;DHT22;412;51.400;7.480;2023-06-19T03:20:29;24.00;83.40
851;DHT22;412;51.400;7.480;2023-06-19T03:22:55;24.00;83.70
851;DHT22;412;51.400;7.480;2023-06-19T03:25:21;24.00;83.90
851;DHT22;412;51.400;7.480;2023-06-19T03:27:46;24.10;84.50
851;DHT22;412;51.400;7.480;2023-06-19T03:30:12;24.00;85.10
851;DHT22;412;51.400;7.480;2023-06-19T03:32:38;24.00;85.80
851;DHT22;412;51.400;7.480;2023-06-19T03:35:04;24.00;85.90
851;DHT22;412;51.400;7.480;2023-06-19T03:37:31;24.00;86.30
851;DHT22;412;51.400;7.480;2023-06-19T03:39:58;24.00;86.70
851;DHT22;412;51.400;7.480;2023-06-19T03:42:23;24.00;87.30
851;DHT22;412;51.400;7.480;2023-06-19T03:44:49;24.00;87.60
851;DHT22;412;51.400;7.480;2023-06-19T03:47:15;24.00;87.40
851;DHT22;412;51.400;7.480;2023-06-19T03:49:42;23.90;88.10
851;DHT22;412;51.400;7.480;2023-06-19T03:52:07;23.90;88.40
851;DHT22;412;51.400;7.480;2023-06-19T03:54:33;23.90;88.70
851;DHT22;412;51.400;7.480;2023-06-19T03:56:59;23.90;88.80
851;DHT22;412;51.400;7.480;2023-06-19T03:59:25;23.90;89.10
851;DHT22;412;51.400;7.480;2023-06-19T04:01:51;23.90;89.60
851;DHT22;412;51.400;7.480;2023-06-19T04:04:17;23.90;90.10
851;DHT22;412;51.400;7.480;2023-06-19T04:06:42;23.90;90.40
851;DHT22;412;51.400;7.480;2023-06-19T04:09:08;23.80;90.60
851;DHT22;412;51.400;7.480;2023-06-19T04:11:34;23.80;91.00
851;DHT22;412;51.400;7.480;2023-06-19T04:14:00;23.80;91.20
851;DHT22;412;51.400;7.480;2023-06-19T04:16:28;23.80;91.40
851;DHT22;412;51.400;7.480;2023-06-19T04:18:53;23.80;91.60
851;DHT22;412;51.400;7.480;2023-06-19T04:21:19;23.70;92.10
851;DHT22;412;51.400;7.480;2023-06-19T04:23:45;23.50;92.70
851;DHT22;412;51.400;7.480;2023-06-19T04:26:11;23.50;93.20
851;DHT22;412;51.400;7.480;2023-06-19T04:28:36;23.50;93.50
851;DHT22;412;51.400;7.480;2023-06-19T04:31:02;23.50;93.80
851;DHT22;412;51.400;7.480;2023-06-19T04:33:28;23.40;94.20
851;DHT22;412;51.400;7.480;2023-06-19T04:35:55;23.40;94.60
851;DHT22;412;51.400;7.480;2023-06-19T04:38:21;23.30;94.90
851;DHT22;412;51.400;7.480;2023-06-19T04:40:52;23.30;95.20
851;DHT22;412;51.400;7.480;2023-06-19T04:43:18;23.30;95.50
851;DHT22;412;51.400;7.480;2023-06-19T04:45:44;23.20;95.70
851;DHT22;412;51.400;7.480;2023-06-19T04:48:09;23.20;96.20
851;DHT22;412;51.400;7.480;2023-06-19T04:50:35;23.20;96.20
851;DHT22;412;51.400;7.480;2023-06-19T04:53:01;23.20;96.30
851;DHT22;412;51.400;7.480;2023-06-19T04:55:27;23.20;96.50
851;DHT22;412;51.400;7.480;2023-06-19T04:57:53;23.30;96.70
851;DHT22;412;51.400;7.480;2023-06-19T05:00:19;23.20;96.60
851;DHT22;412;51.400;7.480;2023-06-19T05:02:45;23.30;96.80
851;DHT22;412;51.400;7.480;2023-06-19T05:05:13;23.20;97.30
851;DHT22;412;51.400;7.480;2023-06-19T05:07:39;23.20;97.50
851;DHT22;412;51.400;7.480;2023-06-19T05:10:05;23.20;97.50
851;DHT22;412;51.400;7.480;2023-06-19T05:12:33;23.20;97.80
851;DHT22;412;51.400;7.480;2023-06-19T05:14:59;23.10;97.90
851;DHT22;412;51.400;7.480;2023-06-19T05:17:24;23.10;98.00
851;DHT22;412;51.400;7.480;2023-06-19T05:19:50;23.10;98.30
851;DHT22;412;51.400;7.480;2023-06-19T05:22:16;23.20;98.50
851;DHT22;412;51.400;7.480;2023-06-19T05:24:44;23.10;98.60
851;DHT22;412;51.400;7.480;2023-06-19T05:27:10;23.10;98.90
851;DHT22;412;51.400;7.480;2023-06-19T05:29:36;23.10;99.00
851;DHT22;412;51.400;7.480;2023-06-19T05:32:02;23.00;99.40
851;DHT22;412;51.400;7.480;2023-06-19T05:34:28;23.10;99.50
851;DHT22;412;51.400;7.480;2023-06-19T05:36:59;23.10;99.70
851;DHT22;412;51.400;7.480;2023-06-19T05:39:29;23.20;99.90
851;DHT22;412;51.400;7.480;2023-06-19T05:41:55;23.10;99.80
851;DHT22;412;51.400;7.480;2023-06-19T05:44:20;23.10;99.90
851;DHT22;412;51.400;7.480;2023-06-19T05:46:46;23.20;99.90
851;DHT22;412;51.400;7.480;2023-06-19T05:49:12;23.10;99.90
851;DHT22;412;51.400;7.480;2023-06-19T05:51:37;23.20;99.90
851;DHT22;412;51.400;7.480;2023-06-19T05:54:03;23.20;99.90
851;DHT22;412;51.400;7.480;2023-06-19T05:56:33;23.20;99.90
851;DHT22;412;51.400;7.480;2023-06-19T05:59:02;23.20;99.90
851;DHT22;412;51.400;7.480;2023-06-19T06:01:28;23.20;99.80
851;DHT22;412;51.400;7.480;2023-06-19T06:03:57;23.20;99.90
851;DHT22;412;51.400;7.480;2023-06-19T06:06:23;23.20;99.90
851;DHT22;412;51.400;7.480;2023-06-19T06:08:49;23.10;99.80
851;DHT22;412;51.400;7.480;2023-06-19T06:11:17;23.20;99.90
851;DHT22;412;51.400;7.480;2023-06-19T06:13:42;23.20;99.90
851;DHT22;412;51.400;7.480;2023-06-19T06:16:08;23.30;99.90
851;DHT22;412;51.400;7.480;2023-06-19T06:18:34;23.30;99.90
851;DHT22;412;51.400;7.480;2023-06-19T06:21:00;23.30;99.90
851;DHT22;412;51.400;7.480;2023-06-19T06:23:26;23.40;99.90
851;DHT22;412;51.400;7.480;2023-06-19T06:25:51;23.40;99.90
851;DHT22;412;51.400;7.480;2023-06-19T06:28:17;23.50;99.90
851;DHT22;412;51.400;7.480;2023-06-19T06:30:43;23.50;99.90
851;DHT22;412;51.400;7.480;2023-06-19T06:33:09;23.50;99.60
851;DHT22;412;51.400;7.480;2023-06-19T06:35:35;23.60;99.50
851;DHT22;412;51.400;7.480;2023-06-19T06:38:04;23.50;99.40
851;DHT22;412;51.400;7.480;2023-06-19T06:40:38;23.40;99.20
851;DHT22;412;51.400;7.480;2023-06-19T06:43:04;23.40;99.30
851;DHT22;412;51.400;7.480;2023-06-19T06:45:29;23.50;99.20
851;DHT22;412;51.400;7.480;2023-06-19T06:47:55;23.40;99.00
851;DHT22;412;51.400;7.480;2023-06-19T06:50:21;23.40;99.30
851;DHT22;412;51.400;7.480;2023-06-19T06:52:46;23.50;99.30
851;DHT22;412;51.400;7.480;2023-06-19T06:55:12;23.30;99.10
851;DHT22;412;51.400;7.480;2023-06-19T06:57:38;23.30;98.90
851;DHT22;412;51.400;7.480;2023-06-19T07:00:05;23.30;98.70
851;DHT22;412;51.400;7.480;2023-06-19T07:02:31;23.30;99.10
851;DHT22;412;51.400;7.480;2023-06-19T07:04:56;23.30;98.80
851;DHT22;412;51.400;7.480;2023-06-19T07:07:22;23.40;98.80
851;DHT22;412;51.400;7.480;2023-06-19T07:09:48;23.50;98.80
851;DHT22;412;51.400;7.480;2023-06-19T07:12:14;23.60;98.50
851;DHT22;412;51.400;7.480;2023-06-19T07:14:40;23.70;98.30
851;DHT22;412;51.400;7.480;2023-06-19T07:17:05;23.80;99.30
851;DHT22;412;51.400;7.480;2023-06-19T07:19:32;24.00;98.00
851;DHT22;412;51.400;7.480;2023-06-19T07:21:59;24.00;98.20
851;DHT22;412;51.400;7.480;2023-06-19T07:24:25;24.10;97.00
851;DHT22;412;51.400;7.480;2023-06-19T07:26:50;24.10;97.10
851;DHT22;412;51.400;7.480;2023-06-19T07:29:16;24.10;96.90
851;DHT22;412;51.400;7.480;2023-06-19T07:31:42;24.10;96.70
851;DHT22;412;51.400;7.480;2023-06-19T07:34:08;24.20;97.00
851;DHT22;412;51.400;7.480;2023-06-19T07:36:34;24.30;97.10
851;DHT22;412;51.400;7.480;2023-06-19T07:39:00;24.20;96.30
851;DHT22;412;51.400;7.480;2023-06-19T07:41:25;24.10;96.60
851;DHT22;412;51.400;7.480;2023-06-19T07:43:51;24.20;97.40
851;DHT22;412;51.400;7.480;2023-06-19T07:46:17;24.20;97.00
851;DHT22;412;51.400;7.480;2023-06-19T07:48:43;24.20;96.90
851;DHT22;412;51.400;7.480;2023-06-19T07:51:08;24.30;97.40
851;DHT22;412;51.400;7.480;2023-06-19T07:53:34;24.30;96.50
851;DHT22;412;51.400;7.480;2023-06-19T07:56:00;24.20;97.10
851;DHT22;412;51.400;7.480;2023-06-19T07:58:25;24.20;97.10
851;DHT22;412;51.400;7.480;2023-06-19T08:00:51;24.30;97.10
851;DHT22;412;51.400;7.480;2023-06-19T08:03:17;24.30;97.40
851;DHT22;412;51.400;7.480;2023-06-19T08:05:42;24.30;97.00
851;DHT22;412;51.400;7.480;2023-06-19T08:08:08;24.30;96.80
851;DHT22;412;51.400;7.480;2023-06-19T08:10:34;24.30;97.30
851;DHT22;412;51.400;7.480;2023-06-19T08:13:00;24.30;97.40
851;DHT22;412;51.400;7.480;2023-06-19T08:15:25;24.30;97.10
851;DHT22;412;51.400;7.480;2023-06-19T08:17:52;24.30;97.10
851;DHT22;412;51.400;7.480;2023-06-19T08:20:17;24.30;97.70
851;DHT22;412;51.400;7.480;2023-06-19T08:22:45;24.30;97.70
851;DHT22;412;51.400;7.480;2023-06-19T08:25:11;24.30;96.50
851;DHT22;412;51.400;7.480;2023-06-19T08:27:37;24.30;96.50
851;DHT22;412;51.400;7.480;2023-06-19T08:30:03;24.30;97.20
851;DHT22;412;51.400;7.480;2023-06-19T08:32:28;24.30;98.00
851;DHT22;412;51.400;7.480;2023-06-19T08:34:54;24.30;97.30
851;DHT22;412;51.400;7.480;2023-06-19T08:37:20;24.30;97.20
851;DHT22;412;51.400;7.480;2023-06-19T08:39:46;24.30;97.30
851;DHT22;412;51.400;7.480;2023-06-19T08:42:12;24.30;97.50
851;DHT22;412;51.400;7.480;2023-06-19T08:44:38;24.30;97.80
851;DHT22;412;51.400;7.480;2023-06-19T08:47:04;24.30;97.70
851;DHT22;412;51.400;7.480;2023-06-19T08:49:31;24.30;97.70
851;DHT22;412;51.400;7.480;2023-06-19T08:51:58;24.30;97.60
851;DHT22;412;51.400;7.480;2023-06-19T08:54:24;24.30;97.70
851;DHT22;412;51.400;7.480;2023-06-19T08:56:50;24.30;98.00
851;DHT22;412;51.400;7.480;2023-06-19T08:59:19;24.30;97.40
851;DHT22;412;51.400;7.480;2023-06-19T09:01:54;24.30;97.30
851;DHT22;412;51.400;7.480;2023-06-19T09:04:23;24.10;97.40
851;DHT22;412;51.400;7.480;2023-06-19T09:06:57;24.10;97.70
851;DHT22;412;51.400;7.480;2023-06-19T09:09:24;24.10;98.00
851;DHT22;412;51.400;7.480;2023-06-19T09:12:07;24.10;98.00
851;DHT22;412;51.400;7.480;2023-06-19T09:14:41;24.10;98.60
851;DHT22;412;51.400;7.480;2023-06-19T09:17:18;24.20;99.00
851;DHT22;412;51.400;7.480;2023-06-19T09:19:48;24.30;98.70
851;DHT22;412;51.400;7.480;2023-06-19T09:22:17;24.30;98.80
851;DHT22;412;51.400;7.480;2023-06-19T09:24:47;24.40;98.80
851;DHT22;412;51.400;7.480;2023-06-19T09:27:15;24.60;99.10
851;DHT22;412;51.400;7.480;2023-06-19T09:29:45;24.80;99.00
851;DHT22;412;51.400;7.480;2023-06-19T09:34:48;25.20;98.00
851;DHT22;412;51.400;7.480;2023-06-19T09:37:15;25.30;96.80
851;DHT22;412;51.400;7.480;2023-06-19T09:39:41;25.50;96.60
851;DHT22;412;51.400;7.480;2023-06-19T09:42:08;25.60;95.70
851;DHT22;412;51.400;7.480;2023-06-19T09:44:40;25.80;95.30
851;DHT22;412;51.400;7.480;2023-06-19T09:47:16;26.00;94.90
851;DHT22;412;51.400;7.480;2023-06-19T09:49:49;26.00;94.10
851;DHT22;412;51.400;7.480;2023-06-19T09:52:19;26.20;94.10
851;DHT22;412;51.400;7.480;2023-06-19T09:54:49;26.30;94.00
851;DHT22;412;51.400;7.480;2023-06-19T09:57:15;26.40;92.60
851;DHT22;412;51.400;7.480;2023-06-19T09:59:41;26.40;92.50
851;DHT22;412;51.400;7.480;2023-06-19T10:02:09;26.40;93.00
851;DHT22;412;51.400;7.480;2023-06-19T10:04:53;26.50;92.00
851;DHT22;412;51.400;7.480;2023-06-19T10:07:26;26.60;91.80
851;DHT22;412;51.400;7.480;2023-06-19T10:10:06;26.60;91.70
851;DHT22;412;51.400;7.480;2023-06-19T10:12:43;26.70;91.30
851;DHT22;412;51.400;7.480;2023-06-19T10:15:20;26.60;90.80
851;DHT22;412;51.400;7.480;2023-06-19T10:17:51;26.50;90.70
851;DHT22;412;51.400;7.480;2023-06-19T10:20:30;26.40;91.30
851;DHT22;412;51.400;7.480;2023-06-19T10:23:02;26.30;90.80
851;DHT22;412;51.400;7.480;2023-06-19T10:25:31;26.20;90.80
851;DHT22;412;51.400;7.480;2023-06-19T10:27:58;26.20;90.80
851;DHT22;412;51.400;7.480;2023-06-19T10:30:24;26.20;90.90
851;DHT22;412;51.400;7.480;2023-06-19T10:32:50;26.20;91.70
851;DHT22;412;51.400;7.480;2023-06-19T10:35:17;26.20;92.10
851;DHT22;412;51.400;7.480;2023-06-19T10:37:43;26.10;91.20
851;DHT22;412;51.400;7.480;2023-06-19T10:40:10;26.10;90.90
851;DHT22;412;51.400;7.480;2023-06-19T10:42:38;26.20;92.10
851;DHT22;412;51.400;7.480;2023-06-19T10:45:09;26.30;91.50
851;DHT22;412;51.400;7.480;2023-06-19T10:47:38;26.50;91.00
851;DHT22;412;51.400;7.480;2023-06-19T10:50:05;26.80;91.20
851;DHT22;412;51.400;7.480;2023-06-19T10:52:35;27.00;90.50
851;DHT22;412;51.400;7.480;2023-06-19T10:55:00;27.30;89.10
851;DHT22;412;51.400;7.480;2023-06-19T10:57:31;27.40;88.80
851;DHT22;412;51.400;7.480;2023-06-19T10:59:57;27.50;87.20
851;DHT22;412;51.400;7.480;2023-06-19T11:02:24;27.70;85.60
851;DHT22;412;51.400;7.480;2023-06-19T11:04:54;27.70;85.40
851;DHT22;412;51.400;7.480;2023-06-19T11:07:22;27.90;84.80
851;DHT22;412;51.400;7.480;2023-06-19T11:09:49;28.10;83.00
851;DHT22;412;51.400;7.480;2023-06-19T11:12:21;28.30;82.70
851;DHT22;412;51.400;7.480;2023-06-19T11:14:49;28.40;82.60
851;DHT22;412;51.400;7.480;2023-06-19T11:17:16;28.60;83.90
851;DHT22;412;51.400;7.480;2023-06-19T11:19:46;28.70;82.30
851;DHT22;412;51.400;7.480;2023-06-19T11:22:12;28.90;81.00
851;DHT22;412;51.400;7.480;2023-06-19T11:24:43;29.00;81.30
851;DHT22;412;51.400;7.480;2023-06-19T11:27:17;29.00;79.30
851;DHT22;412;51.400;7.480;2023-06-19T11:29:44;29.00;76.60
851;DHT22;412;51.400;7.480;2023-06-19T11:32:13;28.90;78.30
851;DHT22;412;51.400;7.480;2023-06-19T11:34:40;28.80;78.50
851;DHT22;412;51.400;7.480;2023-06-19T11:37:16;28.80;77.40
851;DHT22;412;51.400;7.480;2023-06-19T11:39:46;28.80;77.70
851;DHT22;412;51.400;7.480;2023-06-19T11:42:16;28.70;77.00
851;DHT22;412;51.400;7.480;2023-06-19T11:45:00;28.70;76.30
851;DHT22;412;51.400;7.480;2023-06-19T11:47:30;28.60;75.50
851;DHT22;412;51.400;7.480;2023-06-19T11:49:57;28.40;76.10
851;DHT22;412;51.400;7.480;2023-06-19T11:52:23;28.30;77.10
851;DHT22;412;51.400;7.480;2023-06-19T11:54:49;28.10;77.50
851;DHT22;412;51.400;7.480;2023-06-19T11:57:15;28.00;78.00
851;DHT22;412;51.400;7.480;2023-06-19T11:59:41;27.90;79.40
851;DHT22;412;51.400;7.480;2023-06-19T12:02:08;28.00;79.60
851;DHT22;412;51.400;7.480;2023-06-19T12:04:34;28.00;80.10
851;DHT22;412;51.400;7.480;2023-06-19T12:07:00;28.20;79.60
851;DHT22;412;51.400;7.480;2023-06-19T12:09:27;28.30;78.90
851;DHT22;412;51.400;7.480;2023-06-19T12:11:56;28.40;77.10
851;DHT22;412;51.400;7.480;2023-06-19T12:14:21;28.50;78.40
851;DHT22;412;51.400;7.480;2023-06-19T12:16:47;28.60;79.00
851;DHT22;412;51.400;7.480;2023-06-19T12:19:13;28.70;77.80
851;DHT22;412;51.400;7.480;2023-06-19T12:21:39;28.80;77.10
851;DHT22;412;51.400;7.480;2023-06-19T12:24:05;28.70;78.10
851;DHT22;412;51.400;7.480;2023-06-19T12:26:33;28.80;75.90
851;DHT22;412;51.400;7.480;2023-06-19T12:29:03;28.70;75.30
851;DHT22;412;51.400;7.480;2023-06-19T12:31:29;28.60;74.90
851;DHT22;412;51.400;7.480;2023-06-19T12:33:55;28.50;75.70
851;DHT22;412;51.400;7.480;2023-06-19T12:36:21;28.40;76.30
851;DHT22;412;51.400;7.480;2023-06-19T12:38:46;28.40;74.60
851;DHT22;412;51.400;7.480;2023-06-19T12:41:14;28.40;74.30
851;DHT22;412;51.400;7.480;2023-06-19T12:43:40;28.40;72.40
851;DHT22;412;51.400;7.480;2023-06-19T12:46:06;28.30;74.70
851;DHT22;412;51.400;7.480;2023-06-19T12:48:32;28.40;73.40
851;DHT22;412;51.400;7.480;2023-06-19T12:50:58;28.10;72.50
851;DHT22;412;51.400;7.480;2023-06-19T12:53:24;28.10;76.10
851;DHT22;412;51.400;7.480;2023-06-19T12:55:57;28.20;75.40
851;DHT22;412;51.400;7.480;2023-06-19T12:58:23;28.40;76.40
851;DHT22;412;51.400;7.480;2023-06-19T13:00:49;28.60;75.00
851;DHT22;412;51.400;7.480;2023-06-19T13:03:15;28.80;75.10
851;DHT22;412;51.400;7.480;2023-06-19T13:05:41;29.00;74.80
851;DHT22;412;51.400;7.480;2023-06-19T13:08:07;29.20;73.50
851;DHT22;412;51.400;7.480;2023-06-19T13:10:32;29.30;73.20
851;DHT22;412;51.400;7.480;2023-06-19T13:12:58;29.40;72.60
851;DHT22;412;51.400;7.480;2023-06-19T13:15:24;29.60;71.00
851;DHT22;412;51.400;7.480;2023-06-19T13:17:50;29.70;68.60
851;DHT22;412;51.400;7.480;2023-06-19T13:20:16;29.70;67.80
851;DHT22;412;51.400;7.480;2023-06-19T13:22:42;29.70;68.00
851;DHT22;412;51.400;7.480;2023-06-19T13:25:08;29.70;68.30
851;DHT22;412;51.400;7.480;2023-06-19T13:27:34;29.70;69.60
851;DHT22;412;51.400;7.480;2023-06-19T13:30:00;29.70;68.50
851;DHT22;412;51.400;7.480;2023-06-19T13:32:26;29.50;69.30
851;DHT22;412;51.400;7.480;2023-06-19T13:34:52;29.40;67.80
851;DHT22;412;51.400;7.480;2023-06-19T13:37:19;29.30;67.90
851;DHT22;412;51.400;7.480;2023-06-19T13:39:45;29.20;69.30
851;DHT22;412;51.400;7.480;2023-06-19T13:42:11;29.30;69.80
851;DHT22;412;51.400;7.480;2023-06-19T13:44:38;29.30;71.50
851;DHT22;412;51.400;7.480;2023-06-19T13:47:04;29.40;67.20
851;DHT22;412;51.400;7.480;2023-06-19T13:49:30;29.40;68.70
851;DHT22;412;51.400;7.480;2023-06-19T13:51:55;29.50;67.40
851;DHT22;412;51.400;7.480;2023-06-19T13:54:21;29.60;69.10
851;DHT22;412;51.400;7.480;2023-06-19T13:56:48;29.60;66.50
851;DHT22;412;51.400;7.480;2023-06-19T13:59:14;29.60;66.00
851;DHT22;412;51.400;7.480;2023-06-19T14:01:40;29.60;65.60
851;DHT22;412;51.400;7.480;2023-06-19T14:04:07;29.60;67.00
851;DHT22;412;51.400;7.480;2023-06-19T14:06:34;29.60;66.70
851;DHT22;412;51.400;7.480;2023-06-19T14:09:01;29.70;65.80
851;DHT22;412;51.400;7.480;2023-06-19T14:11:27;29.70;66.00
851;DHT22;412;51.400;7.480;2023-06-19T14:13:54;29.70;67.20
851;DHT22;412;51.400;7.480;2023-06-19T14:16:20;29.80;66.10
851;DHT22;412;51.400;7.480;2023-06-19T14:18:46;29.90;67.20
851;DHT22;412;51.400;7.480;2023-06-19T14:21:11;29.90;64.60
851;DHT22;412;51.400;7.480;2023-06-19T14:23:37;29.90;64.80
851;DHT22;412;51.400;7.480;2023-06-19T14:26:09;29.90;62.90
851;DHT22;412;51.400;7.480;2023-06-19T14:28:37;29.90;63.70
851;DHT22;412;51.400;7.480;2023-06-19T14:31:04;29.90;63.40
851;DHT22;412;51.400;7.480;2023-06-19T14:33:29;29.80;64.40
851;DHT22;412;51.400;7.480;2023-06-19T14:35:55;29.80;62.80
851;DHT22;412;51.400;7.480;2023-06-19T14:38:21;29.80;64.10
851;DHT22;412;51.400;7.480;2023-06-19T14:40:47;29.70;63.40
851;DHT22;412;51.400;7.480;2023-06-19T14:43:12;29.70;64.50
851;DHT22;412;51.400;7.480;2023-06-19T14:45:38;29.70;63.20
851;DHT22;412;51.400;7.480;2023-06-19T14:48:05;29.60;64.90
851;DHT22;412;51.400;7.480;2023-06-19T14:50:31;29.70;63.20
851;DHT22;412;51.400;7.480;2023-06-19T14:52:57;29.70;63.10
851;DHT22;412;51.400;7.480;2023-06-19T14:55:22;29.70;62.80
851;DHT22;412;51.400;7.480;2023-06-19T14:57:48;29.80;63.80
851;DHT22;412;51.400;7.480;2023-06-19T15:00:14;29.80;64.20
851;DHT22;412;51.400;7.480;2023-06-19T15:02:40;29.90;63.10
851;DHT22;412;51.400;7.480;2023-06-19T15:05:06;29.90;61.70
851;DHT22;412;51.400;7.480;2023-06-19T15:07:32;29.90;60.70
851;DHT22;412;51.400;7.480;2023-06-19T15:09:58;29.90;61.00
851;DHT22;412;51.400;7.480;2023-06-19T15:12:23;29.90;60.30
851;DHT22;412;51.400;7.480;2023-06-19T15:14:49;29.80;60.20
851;DHT22;412;51.400;7.480;2023-06-19T15:17:15;29.80;60.80
851;DHT22;412;51.400;7.480;2023-06-19T15:19:40;29.80;62.20
851;DHT22;412;51.400;7.480;2023-06-19T15:22:06;29.80;61.10
851;DHT22;412;51.400;7.480;2023-06-19T15:24:32;29.70;60.30
851;DHT22;412;51.400;7.480;2023-06-19T15:27:00;29.70;61.00
851;DHT22;412;51.400;7.480;2023-06-19T15:29:26;29.60;59.90
851;DHT22;412;51.400;7.480;2023-06-19T15:31:52;29.50;61.20
851;DHT22;412;51.400;7.480;2023-06-19T15:34:18;29.50;61.00
851;DHT22;412;51.400;7.480;2023-06-19T15:36:46;29.40;61.50
851;DHT22;412;51.400;7.480;2023-06-19T15:39:11;29.30;61.00
851;DHT22;412;51.400;7.480;2023-06-19T15:41:37;29.30;61.60
851;DHT22;412;51.400;7.480;2023-06-19T15:44:03;29.20;61.80
851;DHT22;412;51.400;7.480;2023-06-19T15:46:28;29.20;63.00
851;DHT22;412;51.400;7.480;2023-06-19T15:48:54;29.20;62.10
851;DHT22;412;51.400;7.480;2023-06-19T15:51:20;29.20;61.10
851;DHT22;412;51.400;7.480;2023-06-19T15:53:46;29.20;61.10
851;DHT22;412;51.400;7.480;2023-06-19T15:56:11;29.20;61.70
851;DHT22;412;51.400;7.480;2023-06-19T15:58:38;29.20;62.00
851;DHT22;412;51.400;7.480;2023-06-19T16:01:04;29.10;63.50
851;DHT22;412;51.400;7.480;2023-06-19T16:03:29;29.10;62.20
851;DHT22;412;51.400;7.480;2023-06-19T16:05:57;29.00;61.30
851;DHT22;412;51.400;7.480;2023-06-19T16:08:23;29.00;61.40
851;DHT22;412;51.400;7.480;2023-06-19T16:10:51;28.90;61.10
851;DHT22;412;51.400;7.480;2023-06-19T16:13:17;28.80;61.10
851;DHT22;412;51.400;7.480;2023-06-19T16:15:43;28.70;61.10
851;DHT22;412;51.400;7.480;2023-06-19T16:18:09;28.70;61.90
851;DHT22;412;51.400;7.480;2023-06-19T16:20:35;28.70;61.90
851;DHT22;412;51.400;7.480;2023-06-19T16:23:01;28.70;62.30
851;DHT22;412;51.400;7.480;2023-06-19T16:25:26;28.60;63.00
851;DHT22;412;51.400;7.480;2023-06-19T16:27:52;28.60;62.90
851;DHT22;412;51.400;7.480;2023-06-19T16:30:18;28.60;63.20
851;DHT22;412;51.400;7.480;2023-06-19T16:32:44;28.50;63.30
851;DHT22;412;51.400;7.480;2023-06-19T16:35:09;28.50;63.90
851;DHT22;412;51.400;7.480;2023-06-19T16:37:36;28.50;64.40
851;DHT22;412;51.400;7.480;2023-06-19T16:40:02;28.40;63.10